createdAt,value
2018-07-17T00:02:58.969Z,7.40
2018-07-17T00:06:03.165Z,7.23
2018-07-17T00:09:08.820Z,8.07
2018-07-17T00:12:13.118Z,8.53
2018-07-17T00:15:17.328Z,7.73
2018-07-17T00:18:21.521Z,7.90
2018-07-17T00:21:25.748Z,7.70
2018-07-17T00:24:29.969Z,7.83
2018-07-17T00:27:34.189Z,7.90
2018-07-17T00:30:38.408Z,7.43
2018-07-17T00:33:42.657Z,7.20
2018-07-17T00:36:46.864Z,7.37
2018-07-17T00:39:51.068Z,7.50
2018-07-17T00:42:55.301Z,7.57
2018-07-17T00:45:59.513Z,7.37
2018-07-17T00:49:03.754Z,7.67
2018-07-17T00:52:08.114Z,7.57
2018-07-17T00:55:12.332Z,7.03
2018-07-17T00:58:16.562Z,6.87
2018-07-17T01:01:25.900Z,7.47
2018-07-17T01:04:35.336Z,6.60
2018-07-17T01:07:44.763Z,6.23
2018-07-17T01:10:54.356Z,6.00
2018-07-17T01:14:06.373Z,6.53
2018-07-17T01:17:10.724Z,6.07
2018-07-17T01:20:14.920Z,6.87
2018-07-17T01:23:19.119Z,6.27
2018-07-17T01:26:23.347Z,6.50
2018-07-17T01:29:27.561Z,6.30
2018-07-17T01:32:31.804Z,5.83
2018-07-17T01:35:36.001Z,6.23
2018-07-17T01:38:40.201Z,6.70
2018-07-17T01:41:44.485Z,6.10
2018-07-17T01:44:48.690Z,6.93
2018-07-17T01:47:52.948Z,6.50
2018-07-17T01:50:57.133Z,6.37
2018-07-17T01:54:01.354Z,5.73
2018-07-17T01:57:05.574Z,5.97
2018-07-17T02:00:09.794Z,5.77
2018-07-17T02:03:14.001Z,5.73
2018-07-17T02:06:18.241Z,6.07
2018-07-17T02:09:22.458Z,5.73
2018-07-17T02:12:26.683Z,5.87
2018-07-17T02:15:30.898Z,5.67
2018-07-17T02:18:35.108Z,6.60
2018-07-17T02:21:39.366Z,5.90
2018-07-17T02:24:43.580Z,6.50
2018-07-17T02:27:47.796Z,6.50
2018-07-17T02:30:52.011Z,6.30
2018-07-17T02:33:56.226Z,6.73
2018-07-17T02:37:00.436Z,6.40
2018-07-17T02:40:04.829Z,6.13
2018-07-17T02:43:09.037Z,6.30
2018-07-17T02:46:13.232Z,6.67
2018-07-17T02:49:17.457Z,7.30
2018-07-17T02:52:21.647Z,7.30
2018-07-17T02:55:25.876Z,7.43
2018-07-17T02:58:30.085Z,7.17
2018-07-17T03:01:34.302Z,7.87
2018-07-17T03:04:38.500Z,7.53
2018-07-17T03:07:42.754Z,7.70
2018-07-17T03:10:46.963Z,8.10
2018-07-17T03:13:51.161Z,8.13
2018-07-17T03:16:55.376Z,8.37
2018-07-17T03:19:59.589Z,9.23
2018-07-17T03:23:03.784Z,9.47
2018-07-17T03:26:07.989Z,9.97
2018-07-17T03:29:12.214Z,9.03
2018-07-17T03:32:16.426Z,8.47
2018-07-17T03:35:20.638Z,7.97
2018-07-17T03:38:24.867Z,7.87
2018-07-17T03:41:29.081Z,8.57
2018-07-17T03:44:33.340Z,10.03
2018-07-17T03:47:37.528Z,8.43
2018-07-17T03:50:41.737Z,10.10
2018-07-17T03:53:45.949Z,9.23
2018-07-17T03:56:50.153Z,9.87
2018-07-17T03:59:54.367Z,9.63
2018-07-17T04:02:58.609Z,9.00
2018-07-17T04:06:02.805Z,9.10
2018-07-17T04:09:08.181Z,9.10
2018-07-17T04:12:12.417Z,8.73
2018-07-17T04:15:16.617Z,8.73
2018-07-17T04:18:20.816Z,8.20
2018-07-17T04:21:25.026Z,8.43
2018-07-17T04:24:29.233Z,8.43
2018-07-17T04:27:33.448Z,7.53
2018-07-17T04:30:37.796Z,7.87
2018-07-17T04:33:42.097Z,7.93
2018-07-17T04:36:46.324Z,8.20
2018-07-17T04:39:50.537Z,8.63
2018-07-17T04:42:54.739Z,8.13
2018-07-17T04:45:58.958Z,9.00
2018-07-17T04:49:03.272Z,7.50
2018-07-17T04:52:07.489Z,7.30
2018-07-17T04:55:11.689Z,7.97
2018-07-17T04:58:15.869Z,7.87
2018-07-17T05:01:20.069Z,7.77
2018-07-17T05:04:24.256Z,8.23
2018-07-17T05:07:28.533Z,7.30
2018-07-17T05:10:32.731Z,7.10
2018-07-17T05:13:36.945Z,6.83
2018-07-17T05:16:41.151Z,6.23
2018-07-17T05:19:45.124Z,6.07
2018-07-17T05:22:49.376Z,5.53
2018-07-17T05:25:53.538Z,6.87
2018-07-17T05:28:57.761Z,6.23
2018-07-17T05:32:01.945Z,5.70
2018-07-17T05:35:06.299Z,5.70
2018-07-17T05:38:10.493Z,5.47
2018-07-17T05:41:14.707Z,5.03
2018-07-17T05:44:18.928Z,4.50
2018-07-17T05:47:23.159Z,4.27
2018-07-17T05:50:27.376Z,3.80
2018-07-17T05:53:31.583Z,4.13
2018-07-17T05:56:35.777Z,3.80
2018-07-17T05:59:40.017Z,3.90
2018-07-17T06:02:44.224Z,4.43
2018-07-17T06:05:48.461Z,4.17
2018-07-17T06:08:52.681Z,3.90
2018-07-17T06:11:56.909Z,3.80
2018-07-17T06:15:01.407Z,3.87
2018-07-17T06:18:05.653Z,3.70
2018-07-17T06:21:09.915Z,3.73
2018-07-17T06:24:13.902Z,4.00
2018-07-17T06:27:18.165Z,4.77
2018-07-17T06:30:22.369Z,5.00
2018-07-17T06:33:26.597Z,4.87
2018-07-17T06:36:30.817Z,4.03
2018-07-17T06:39:35.025Z,3.50
2018-07-17T06:42:39.248Z,4.10
2018-07-17T06:45:43.501Z,2.50
2018-07-17T06:48:47.727Z,3.10
2018-07-17T06:51:51.933Z,2.20
2018-07-17T06:54:56.164Z,2.70
2018-07-17T06:58:00.389Z,2.53
2018-07-17T07:01:04.605Z,2.50
2018-07-17T07:04:08.836Z,2.43
2018-07-17T07:07:13.092Z,2.27
2018-07-17T07:10:17.337Z,1.83
2018-07-17T07:13:21.553Z,2.07
2018-07-17T07:16:25.773Z,2.27
2018-07-17T07:19:29.967Z,1.97
2018-07-17T07:22:34.224Z,2.17
2018-07-17T07:25:38.472Z,2.30
2018-07-17T07:28:42.700Z,1.67
2018-07-17T07:31:46.922Z,1.90
2018-07-17T07:34:51.148Z,1.97
2018-07-17T07:37:55.394Z,2.13
2018-07-17T07:40:59.624Z,2.17
2018-07-17T07:44:04.252Z,1.80
2018-07-17T07:47:08.509Z,2.47
2018-07-17T07:50:12.749Z,2.10
2018-07-17T07:53:16.976Z,2.27
2018-07-17T07:56:21.205Z,1.83
2018-07-17T07:59:25.417Z,2.10
2018-07-17T08:02:29.665Z,2.07
2018-07-17T08:05:33.862Z,1.70
2018-07-17T08:08:38.064Z,2.10
2018-07-17T08:11:42.333Z,1.90
2018-07-17T08:14:46.518Z,2.10
2018-07-17T08:17:50.745Z,2.27
2018-07-17T08:20:54.970Z,2.20
2018-07-17T08:23:59.205Z,2.20
2018-07-17T08:27:03.421Z,2.80
2018-07-17T08:30:07.625Z,2.20
2018-07-17T08:33:11.873Z,2.30
2018-07-17T08:36:16.077Z,2.83
2018-07-17T08:39:20.323Z,2.70
2018-07-17T08:42:24.549Z,2.40
2018-07-17T08:45:28.800Z,2.80
2018-07-17T08:48:33.028Z,2.80
2018-07-17T08:51:37.245Z,2.97
2018-07-17T08:54:41.569Z,2.47
2018-07-17T08:57:45.656Z,2.67
2018-07-17T09:00:49.937Z,3.30
2018-07-17T09:03:54.130Z,3.00
2018-07-17T09:06:58.321Z,2.63
2018-07-17T09:10:02.562Z,3.00
2018-07-17T09:13:06.801Z,2.73
2018-07-17T09:16:10.992Z,3.03
2018-07-17T09:19:15.242Z,2.57
2018-07-17T09:22:19.441Z,3.20
2018-07-17T09:25:23.678Z,2.70
2018-07-17T09:28:27.885Z,2.43
2018-07-17T09:31:32.117Z,2.97
2018-07-17T09:34:36.326Z,2.83
2018-07-17T09:37:40.521Z,3.00
2018-07-17T09:40:44.720Z,2.80
2018-07-17T09:43:48.959Z,2.90
2018-07-17T09:46:53.184Z,2.83
2018-07-17T09:49:57.408Z,2.80
2018-07-17T09:53:01.606Z,3.40
2018-07-17T09:56:05.918Z,2.97
2018-07-17T09:59:10.097Z,2.80
2018-07-17T10:02:19.687Z,2.80
2018-07-17T10:05:23.884Z,2.67
2018-07-17T10:08:28.105Z,2.70
2018-07-17T10:11:32.311Z,2.80
2018-07-17T10:14:37.766Z,2.93
2018-07-17T10:17:41.963Z,2.47
2018-07-17T10:20:46.225Z,3.00
2018-07-17T10:23:50.449Z,2.77
2018-07-17T10:26:54.680Z,2.83
2018-07-17T10:29:58.900Z,2.70
2018-07-17T10:33:03.121Z,2.67
2018-07-17T10:36:07.441Z,2.90
2018-07-17T10:39:12.040Z,2.30
2018-07-17T10:42:16.257Z,2.43
2018-07-17T10:45:20.477Z,2.70
2018-07-17T10:48:24.680Z,2.60
2018-07-17T10:51:28.921Z,2.50
2018-07-17T10:54:33.144Z,2.60
2018-07-17T10:57:37.381Z,2.77
2018-07-17T11:00:41.630Z,2.80
2018-07-17T11:03:45.868Z,2.97
2018-07-17T11:06:50.133Z,3.07
2018-07-17T11:09:54.374Z,2.83
2018-07-17T11:12:58.685Z,2.67
2018-07-17T11:16:02.793Z,3.10
2018-07-17T11:19:07.167Z,3.23
2018-07-17T11:22:11.388Z,3.10
2018-07-17T11:25:15.608Z,3.00
2018-07-17T11:28:19.813Z,2.97
2018-07-17T11:31:24.032Z,2.70
2018-07-17T11:34:28.236Z,3.37
2018-07-17T11:37:32.468Z,3.00
2018-07-17T11:40:36.684Z,2.90
2018-07-17T11:43:41.064Z,2.80
2018-07-17T11:46:45.329Z,2.77
2018-07-17T11:49:49.557Z,2.80
2018-07-17T11:52:53.821Z,2.80
2018-07-17T11:55:58.053Z,3.00
2018-07-17T11:59:02.455Z,3.07
2018-07-17T12:02:06.726Z,3.30
2018-07-17T12:05:10.989Z,3.00
2018-07-17T12:08:15.187Z,3.00
2018-07-17T12:11:19.460Z,2.93
2018-07-17T12:14:23.837Z,2.93
2018-07-17T12:17:28.105Z,2.90
2018-07-17T12:20:32.481Z,2.60
2018-07-17T12:23:36.561Z,2.67
2018-07-17T12:26:40.789Z,2.40
2018-07-17T12:29:44.993Z,2.70
2018-07-17T12:32:49.184Z,2.70
2018-07-17T12:35:53.392Z,3.20
2018-07-17T12:38:57.611Z,2.80
2018-07-17T12:42:01.841Z,2.80
2018-07-17T12:45:06.086Z,2.90
2018-07-17T12:48:13.084Z,2.77
2018-07-17T12:51:17.308Z,2.83
2018-07-17T12:54:21.505Z,2.53
2018-07-17T12:57:25.757Z,2.57
2018-07-17T13:00:29.968Z,2.90
2018-07-17T13:03:34.465Z,2.50
2018-07-17T13:06:38.876Z,3.00
2018-07-17T13:09:43.212Z,2.80
2018-07-17T13:12:47.445Z,3.00
2018-07-17T13:15:51.677Z,3.00
2018-07-17T13:18:55.913Z,2.80
2018-07-17T13:22:00.137Z,2.67
2018-07-17T13:25:04.902Z,3.07
2018-07-17T13:28:09.144Z,2.87
2018-07-17T13:31:13.446Z,2.80
2018-07-17T13:34:17.653Z,2.87
2018-07-17T13:37:21.877Z,2.30
2018-07-17T13:40:26.099Z,2.70
2018-07-17T13:43:30.340Z,2.80
2018-07-17T13:46:34.550Z,2.33
2018-07-17T13:49:38.771Z,2.30
2018-07-17T13:52:43.013Z,2.93
2018-07-17T13:55:47.249Z,3.03
2018-07-17T13:58:51.599Z,2.30
2018-07-17T14:01:55.854Z,2.50
2018-07-17T14:05:00.069Z,2.50
2018-07-17T14:08:04.300Z,2.23
2018-07-17T14:11:08.562Z,2.30
2018-07-17T14:14:12.769Z,2.37
2018-07-17T14:17:16.763Z,2.57
2018-07-17T14:20:21.030Z,2.50
2018-07-17T14:23:25.244Z,2.33
2018-07-17T14:26:29.458Z,2.20
2018-07-17T14:29:33.656Z,2.47
2018-07-17T14:32:37.859Z,2.30
2018-07-17T14:35:42.120Z,2.30
2018-07-17T14:38:46.330Z,2.37
2018-07-17T14:41:50.602Z,2.20
2018-07-17T14:44:54.830Z,1.80
2018-07-17T14:47:59.059Z,2.20
2018-07-17T14:51:03.089Z,1.90
2018-07-17T14:54:07.325Z,1.70
2018-07-17T14:57:11.575Z,1.73
2018-07-17T15:00:16.248Z,1.77
2018-07-17T15:03:20.494Z,1.93
2018-07-17T15:06:24.694Z,1.90
2018-07-17T15:09:28.912Z,1.53
2018-07-17T15:12:33.126Z,2.07
2018-07-17T15:15:37.393Z,2.17
2018-07-17T15:18:41.560Z,1.90
2018-07-17T15:21:45.781Z,1.90
2018-07-17T15:24:50.013Z,1.60
2018-07-17T15:27:54.507Z,1.50
2018-07-17T15:30:58.807Z,1.73
2018-07-17T15:34:03.114Z,1.70
2018-07-17T15:37:07.337Z,1.90
2018-07-17T15:40:11.562Z,1.80
2018-07-17T15:43:15.788Z,1.60
2018-07-17T15:46:20.027Z,1.73
2018-07-17T15:49:24.229Z,1.73
2018-07-17T15:52:28.482Z,1.43
2018-07-17T15:55:32.693Z,1.53
2018-07-17T15:58:36.938Z,1.50
2018-07-17T16:01:41.176Z,1.63
2018-07-17T16:04:45.405Z,1.90
2018-07-17T16:07:50.905Z,1.40
2018-07-17T16:10:55.120Z,1.60
2018-07-17T16:13:59.645Z,1.70
2018-07-17T16:17:03.581Z,1.50
2018-07-17T16:20:08.322Z,1.87
2018-07-17T16:23:12.564Z,1.50
2018-07-17T16:26:16.822Z,2.00
2018-07-17T16:29:21.676Z,1.80
2018-07-17T16:32:25.924Z,1.90
2018-07-17T16:35:30.645Z,1.70
2018-07-17T16:38:34.875Z,2.67
2018-07-17T16:41:39.104Z,1.63
2018-07-17T16:44:43.404Z,1.40
2018-07-17T16:47:47.664Z,1.63
2018-07-17T16:50:52.021Z,1.90
2018-07-17T16:53:57.047Z,1.70
2018-07-17T16:57:01.283Z,2.00
2018-07-17T17:00:05.817Z,1.43
2018-07-17T17:03:10.248Z,1.50
2018-07-17T17:06:14.480Z,1.57
2018-07-17T17:09:18.794Z,1.60
2018-07-17T17:12:23.012Z,1.60
2018-07-17T17:15:27.259Z,1.40
2018-07-17T17:18:31.461Z,1.60
2018-07-17T17:21:35.696Z,1.50
2018-07-17T17:24:39.961Z,1.70
2018-07-17T17:27:44.162Z,1.60
2018-07-17T17:30:48.361Z,1.70
2018-07-17T17:33:52.565Z,1.47
2018-07-17T17:36:56.791Z,2.33
2018-07-17T17:40:00.997Z,2.30
2018-07-17T17:43:05.548Z,1.93
2018-07-17T17:46:09.781Z,2.40
2018-07-17T17:49:14.010Z,2.03
2018-07-17T17:52:18.238Z,2.00
2018-07-17T17:55:22.445Z,1.90
2018-07-17T17:58:26.641Z,2.23
2018-07-17T18:01:30.881Z,2.30
2018-07-17T18:04:35.089Z,2.50
2018-07-17T18:07:39.326Z,2.20
2018-07-17T18:10:43.552Z,2.27
2018-07-17T18:13:47.760Z,2.40
2018-07-17T18:16:51.969Z,2.30
2018-07-17T18:19:56.170Z,2.97
2018-07-17T18:23:00.389Z,2.63
2018-07-17T18:26:04.577Z,2.43
2018-07-17T18:29:08.822Z,2.67
2018-07-17T18:32:13.373Z,2.40
2018-07-17T18:35:17.565Z,2.60
2018-07-17T18:38:21.800Z,2.60
2018-07-17T18:41:26.015Z,2.53
2018-07-17T18:44:30.268Z,2.57
2018-07-17T18:47:34.513Z,2.60
2018-07-17T18:50:38.753Z,2.60
2018-07-17T18:53:43.010Z,2.60
2018-07-17T18:56:47.247Z,2.77
2018-07-17T18:59:51.461Z,2.50
2018-07-17T19:02:55.473Z,2.60
2018-07-17T19:05:59.499Z,2.37
2018-07-17T19:09:04.069Z,2.73
2018-07-17T19:12:08.274Z,2.70
2018-07-17T19:15:12.481Z,3.10
2018-07-17T19:18:16.767Z,3.13
2018-07-17T19:21:20.982Z,4.43
2018-07-17T19:24:25.236Z,5.27
2018-07-17T19:27:29.380Z,6.23
2018-07-17T19:30:33.633Z,7.07
2018-07-17T19:33:37.861Z,11.17
2018-07-17T19:36:42.107Z,13.20
2018-07-17T19:39:46.329Z,15.80
2018-07-17T19:42:50.541Z,16.80
2018-07-17T19:45:54.764Z,18.90
2018-07-17T19:48:59.072Z,19.53
2018-07-17T19:52:03.293Z,20.67
2018-07-17T19:55:07.565Z,22.90
2018-07-17T19:58:11.772Z,22.27
2018-07-17T20:01:15.981Z,22.93
2018-07-17T20:04:20.191Z,23.53
2018-07-17T20:07:24.400Z,24.27
2018-07-17T20:10:28.605Z,24.10
2018-07-17T20:13:32.830Z,24.93
2018-07-17T20:16:37.036Z,26.13
2018-07-17T20:19:41.333Z,26.63
2018-07-17T20:22:45.529Z,27.80
2018-07-17T20:25:49.736Z,28.77
2018-07-17T20:28:53.929Z,27.27
2018-07-17T20:31:58.161Z,30.00
2018-07-17T20:35:02.364Z,29.00
2018-07-17T20:38:06.564Z,26.23
2018-07-17T20:41:10.839Z,26.50
2018-07-17T20:44:15.014Z,27.43
2018-07-17T20:47:19.224Z,25.30
2018-07-17T20:50:23.468Z,24.33
2018-07-17T20:53:27.672Z,24.20
2018-07-17T20:56:31.886Z,23.00
2018-07-17T20:59:36.089Z,23.93
2018-07-17T21:02:40.292Z,23.40
2018-07-17T21:05:44.500Z,25.13
2018-07-17T21:08:48.490Z,22.50
2018-07-17T21:11:52.709Z,23.83
2018-07-17T21:14:56.938Z,22.63
2018-07-17T21:18:00.926Z,22.07
2018-07-17T21:21:05.132Z,21.67
2018-07-17T21:24:09.345Z,21.60
2018-07-17T21:27:13.578Z,22.13
2018-07-17T21:30:17.837Z,22.33
2018-07-17T21:33:22.053Z,21.30
2018-07-17T21:36:26.298Z,20.83
2018-07-17T21:39:30.517Z,20.63
2018-07-17T21:42:34.733Z,20.33
2018-07-17T21:45:38.937Z,21.00
2018-07-17T21:48:43.189Z,19.03
2018-07-17T21:51:47.405Z,20.93
2018-07-17T21:54:51.620Z,19.83
2018-07-17T21:57:55.840Z,18.97
2018-07-17T22:01:00.050Z,20.60
2018-07-17T22:04:04.326Z,20.67
2018-07-17T22:07:08.532Z,20.80
2018-07-17T22:10:12.777Z,21.63
2018-07-17T22:13:16.986Z,20.50
2018-07-17T22:16:21.277Z,20.77
2018-07-17T22:19:25.520Z,20.03
2018-07-17T22:22:29.763Z,20.73
2018-07-17T22:25:34.025Z,20.50
2018-07-17T22:28:38.254Z,20.53
2018-07-17T22:31:42.472Z,20.73
2018-07-17T22:34:46.488Z,20.53
2018-07-17T22:37:50.741Z,19.30
2018-07-17T22:40:54.993Z,21.13
2018-07-17T22:43:59.235Z,20.50
2018-07-17T22:47:03.472Z,20.00
2018-07-17T22:50:07.751Z,19.90
2018-07-17T22:53:12.008Z,19.37
2018-07-17T22:56:16.261Z,21.20
2018-07-17T22:59:20.493Z,20.63
2018-07-17T23:02:24.742Z,20.67
2018-07-17T23:05:28.969Z,21.27
2018-07-17T23:08:33.237Z,21.50
2018-07-17T23:11:38.064Z,20.57
2018-07-17T23:14:42.357Z,20.80
2018-07-17T23:17:46.570Z,21.33
2018-07-17T23:20:50.804Z,20.47
2018-07-17T23:23:55.777Z,19.17
2018-07-17T23:27:00.015Z,18.07
2018-07-17T23:30:04.229Z,17.97
2018-07-17T23:33:08.444Z,17.80
2018-07-17T23:36:12.620Z,17.30
2018-07-17T23:39:16.841Z,16.47
2018-07-17T23:42:21.020Z,17.97
2018-07-17T23:45:25.233Z,16.33
2018-07-17T23:48:29.411Z,15.97
2018-07-17T23:51:33.617Z,15.17
2018-07-17T23:54:37.847Z,15.07
2018-07-17T23:57:42.050Z,13.97
